createdAt,value
2023-09-16T00:01:21.714Z,92.0
2023-09-16T00:14:21.672Z,92.0
2023-09-16T00:27:21.676Z,91.0
2023-09-16T00:40:21.626Z,92.0
2023-09-16T00:53:21.599Z,92.0
2023-09-16T01:06:21.621Z,94.0
2023-09-16T01:19:21.632Z,92.0
2023-09-16T01:32:21.651Z,92.0
2023-09-16T01:45:21.630Z,92.0
2023-09-16T01:58:21.643Z,92.0
2023-09-16T02:11:21.683Z,93.0
2023-09-16T02:24:21.655Z,93.0
2023-09-16T02:37:21.674Z,93.0
2023-09-16T02:50:21.650Z,94.0
2023-09-16T03:03:21.733Z,93.0
2023-09-16T03:16:21.696Z,93.0
2023-09-16T03:29:21.705Z,92.0
2023-09-16T03:42:21.665Z,91.0
2023-09-16T03:55:21.696Z,92.0
2023-09-16T04:08:21.708Z,92.0
2023-09-16T04:21:21.685Z,93.0
2023-09-16T04:34:21.699Z,94.0
2023-09-16T04:47:21.723Z,95.0
2023-09-16T05:00:21.743Z,94.0
2023-09-16T05:13:21.757Z,94.0
2023-09-16T05:26:21.736Z,94.0
2023-09-16T05:39:21.742Z,94.0
2023-09-16T05:52:21.748Z,94.0
2023-09-16T06:05:21.756Z,94.0
2023-09-16T06:18:21.741Z,94.0
2023-09-16T06:31:21.792Z,93.0
2023-09-16T06:44:21.769Z,88.0
2023-09-16T07:10:21.821Z,79.0
2023-09-16T07:23:21.857Z,68.0
2023-09-16T07:36:21.825Z,65.0
2023-09-16T07:49:21.922Z,60.0
2023-09-16T08:02:21.873Z,59.0
2023-09-16T08:15:21.873Z,59.0
2023-09-16T08:28:21.904Z,60.0
2023-09-16T08:41:21.881Z,60.0
2023-09-16T08:54:21.881Z,60.0
2023-09-16T09:07:21.966Z,57.0
2023-09-16T09:20:21.905Z,56.0
2023-09-16T09:33:21.890Z,53.0
2023-09-16T09:46:22.116Z,54.0
2023-09-16T09:59:21.935Z,52.0
2023-09-16T10:12:21.903Z,53.0
2023-09-16T10:25:21.919Z,53.0
2023-09-16T10:38:21.953Z,55.0
2023-09-16T10:51:21.946Z,55.0
2023-09-16T11:04:21.948Z,55.0
2023-09-16T11:17:21.964Z,56.0
2023-09-16T11:30:21.928Z,56.0
2023-09-16T11:43:21.989Z,56.0
2023-09-16T11:56:21.977Z,60.0
2023-09-16T12:09:21.950Z,62.0
2023-09-16T12:22:21.952Z,62.0
2023-09-16T12:35:21.943Z,62.0
2023-09-16T12:48:21.969Z,62.0
2023-09-16T13:01:22.066Z,63.0
2023-09-16T13:14:22.003Z,64.0
2023-09-16T13:27:21.955Z,62.0
2023-09-16T13:40:22.035Z,61.0
2023-09-16T13:53:21.998Z,58.0
2023-09-16T14:06:21.993Z,52.0
2023-09-16T14:19:22.042Z,54.0
2023-09-16T14:32:22.072Z,51.0
2023-09-16T14:45:22.068Z,51.0
2023-09-16T14:58:22.119Z,52.0
2023-09-16T15:11:22.087Z,55.0
2023-09-16T15:24:22.094Z,60.0
2023-09-16T15:37:22.109Z,57.0
2023-09-16T15:50:22.101Z,61.0
2023-09-16T16:03:22.209Z,67.0
2023-09-16T16:16:22.174Z,72.0
2023-09-16T16:29:22.102Z,73.0
2023-09-16T16:42:22.130Z,74.0
2023-09-16T16:55:22.142Z,73.0
2023-09-16T17:08:22.104Z,76.0
2023-09-16T17:21:22.134Z,79.0
2023-09-16T17:34:22.155Z,81.0
2023-09-16T17:47:22.143Z,83.0
2023-09-16T18:00:22.117Z,83.0
2023-09-16T18:13:22.206Z,83.0
2023-09-16T18:26:22.142Z,83.0
2023-09-16T18:39:22.144Z,83.0
2023-09-16T18:52:22.190Z,81.0
2023-09-16T19:05:22.175Z,83.0
2023-09-16T19:18:22.123Z,84.0
2023-09-16T19:31:22.249Z,86.0
2023-09-16T19:44:22.142Z,87.0
2023-09-16T19:57:22.240Z,87.0
2023-09-16T20:10:22.207Z,88.0
2023-09-16T20:23:22.168Z,89.0
2023-09-16T20:36:22.168Z,90.0
2023-09-16T20:49:22.227Z,91.0
2023-09-16T21:02:22.263Z,91.0
2023-09-16T21:15:22.187Z,91.0
2023-09-16T21:28:22.222Z,91.0
2023-09-16T21:41:22.200Z,91.0
2023-09-16T21:54:22.191Z,92.0
2023-09-16T22:07:22.252Z,93.0
2023-09-16T22:20:22.208Z,93.0
2023-09-16T22:33:22.215Z,92.0
2023-09-16T22:46:22.287Z,93.0
2023-09-16T22:59:22.259Z,93.0
2023-09-16T23:12:22.282Z,94.0
2023-09-16T23:25:22.293Z,94.0
2023-09-16T23:38:22.259Z,94.0
2023-09-16T23:51:22.253Z,95.0
